Time;durP1;ratioP1;P1;durP2;ratioP2;P2;SDS_P1;SDS_P2;PMS_P1;PMS_P2;Temp;Humidity;BMP_temperature;BMP_pressure;BME280_temperature;BME280_humidity;BME280_pressure;Samples;Min_cycle;Max_cycle;Signal;HPM_P1;HPM_P2
2023/09/28 00:01:35;;;;;;;31.50;28.50;;;;;;;14.47;100.00;99467.45;109062;1258;59034;-76
2023/09/28 00:04:02;;;;;;;36.90;33.30;;;;;;;14.45;100.00;99469.79;109593;1251;63266;-76
2023/09/28 00:06:29;;;;;;;37.00;33.30;;;;;;;14.42;100.00;99472.52;109547;1251;59054;-74
2023/09/28 00:08:55;;;;;;;33.70;30.60;;;;;;;14.40;100.00;99469.66;109640;1250;58867;-76
2023/09/28 00:11:21;;;;;;;34.00;30.80;;;;;;;14.38;100.00;99470.87;109662;1250;59408;-76
2023/09/28 00:13:48;;;;;;;34.40;31.00;;;;;;;14.35;100.00;99471.80;109668;1250;58929;-75
2023/09/28 00:16:14;;;;;;;35.40;31.30;;;;;;;14.33;100.00;99473.70;109629;1251;59038;-76
2023/09/28 00:18:41;;;;;;;34.80;31.20;;;;;;;14.31;100.00;99475.82;109612;1251;59274;-76
2023/09/28 00:21:07;;;;;;;30.70;27.80;;;;;;;14.27;100.00;99475.39;109641;1251;59363;-76
2023/09/28 00:23:34;;;;;;;31.70;28.20;;;;;;;14.23;100.00;99470.16;109621;1251;59053;-75
2023/09/28 00:26:00;;;;;;;31.90;28.60;;;;;;;14.20;100.00;99471.86;109661;1254;58908;-76
2023/09/28 00:28:27;;;;;;;31.90;28.90;;;;;;;14.17;100.00;99470.31;109545;1251;59099;-76
2023/09/28 00:30:53;;;;;;;31.20;28.10;;;;;;;14.14;100.00;99470.15;109603;1251;58968;-76
2023/09/28 00:33:20;;;;;;;28.90;26.00;;;;;;;14.11;100.00;99468.73;109641;1251;59400;-76
2023/09/28 00:35:47;;;;;;;30.50;27.40;;;;;;;14.09;100.00;99473.24;109567;1250;66123;-76
2023/09/28 00:38:13;;;;;;;27.70;24.90;;;;;;;14.05;100.00;99472.06;109747;1251;58982;-76
2023/09/28 00:40:40;;;;;;;26.00;23.30;;;;;;;14.01;100.00;99471.81;109619;1250;59072;-76
2023/09/28 00:43:07;;;;;;;25.40;23.00;;;;;;;13.96;100.00;99472.54;109584;1251;58976;-76
2023/09/28 00:45:33;;;;;;;20.70;18.80;;;;;;;13.90;100.00;99474.04;109667;1251;59304;-76
2023/09/28 00:48:02;;;;;;;22.40;20.10;;;;;;;13.84;100.00;99474.63;109591;1250;59114;-76
2023/09/28 00:50:32;;;;;;;25.00;22.50;;;;;;;13.79;100.00;99474.11;109648;1250;61566;-76
2023/09/28 00:53:02;;;;;;;24.20;21.80;;;;;;;13.76;100.00;99473.10;109594;1250;63875;-76
2023/09/28 00:55:29;;;;;;;29.20;26.00;;;;;;;13.73;100.00;99475.30;109649;1250;58938;-75
2023/09/28 00:57:58;;;;;;;26.90;24.10;;;;;;;13.70;100.00;99474.44;109652;1251;61628;-76
2023/09/28 01:00:33;;;;;;;25.40;22.80;;;;;;;13.68;100.00;99472.61;109675;1250;65047;-76
2023/09/28 01:03:05;;;;;;;27.90;25.00;;;;;;;13.66;100.00;99475.80;109697;1250;60278;-75
2023/09/28 01:05:39;;;;;;;24.30;21.90;;;;;;;13.63;100.00;99478.15;109565;1251;63977;-77
2023/09/28 01:08:18;;;;;;;27.00;24.10;;;;;;;13.59;100.00;99476.66;109675;1251;58990;-76
2023/09/28 01:10:45;;;;;;;27.70;25.00;;;;;;;13.55;100.00;99475.85;109620;1251;58974;-76
2023/09/28 01:13:15;;;;;;;24.40;22.10;;;;;;;13.52;100.00;99475.73;109681;1250;65874;-76
2023/09/28 01:15:43;;;;;;;23.20;21.00;;;;;;;13.49;100.00;99474.70;109667;1250;59442;-76
2023/09/28 01:18:12;;;;;;;25.10;22.40;;;;;;;13.45;100.00;99474.27;109633;1251;64140;-76
2023/09/28 01:20:39;;;;;;;29.00;25.80;;;;;;;13.42;100.00;99475.15;109714;1251;59928;-76
2023/09/28 01:23:06;;;;;;;24.10;21.60;;;;;;;13.40;100.00;99476.19;109610;1251;58896;-76
2023/09/28 01:25:33;;;;;;;27.50;24.60;;;;;;;13.36;100.00;99476.09;109661;1250;64948;-76
2023/09/28 01:28:00;;;;;;;27.60;24.80;;;;;;;13.34;100.00;99478.76;109581;1255;59083;-76
2023/09/28 01:30:27;;;;;;;24.30;21.80;;;;;;;13.32;100.00;99476.95;109560;1251;64915;-76
2023/09/28 01:32:53;;;;;;;25.70;23.10;;;;;;;13.30;100.00;99476.40;109611;1251;58995;-75
2023/09/28 01:35:20;;;;;;;25.50;22.90;;;;;;;13.27;100.00;99475.34;109642;1251;58941;-76
2023/09/28 01:38:09;;;;;;;27.80;24.90;;;;;;;13.25;100.00;99475.66;109634;1251;66056;-76
2023/09/28 01:40:36;;;;;;;26.00;23.40;;;;;;;13.22;100.00;99473.16;109706;1251;61323;-76
2023/09/28 01:43:03;;;;;;;24.90;22.50;;;;;;;13.20;100.00;99478.15;109643;1250;63840;-76
2023/09/28 01:45:30;;;;;;;29.60;25.60;;;;;;;13.16;100.00;99476.63;109639;1251;58956;-76
2023/09/28 01:47:56;;;;;;;28.20;25.40;;;;;;;13.12;100.00;99477.05;109686;1250;58947;-76
2023/09/28 01:50:22;;;;;;;28.50;24.70;;;;;;;13.10;100.00;99477.76;109642;1250;58828;-75
2023/09/28 01:52:49;;;;;;;27.10;24.30;;;;;;;13.09;100.00;99477.44;109687;1251;58946;-75
2023/09/28 01:55:16;;;;;;;26.60;23.80;;;;;;;13.08;100.00;99477.52;109647;1250;59347;-76
2023/09/28 01:57:42;;;;;;;27.50;24.70;;;;;;;13.06;100.00;99474.44;109650;1250;58999;-76
2023/09/28 02:00:30;;;;;;;27.20;24.10;;;;;;;13.05;100.00;99475.23;109653;1250;59000;-76
2023/09/28 02:02:57;;;;;;;25.50;22.90;;;;;;;13.02;100.00;99475.66;109632;1251;64553;-76
2023/09/28 02:05:26;;;;;;;27.70;24.80;;;;;;;12.97;100.00;99473.50;109711;1250;60071;-76
2023/09/28 02:07:53;;;;;;;25.40;22.90;;;;;;;12.95;100.00;99474.33;109602;1251;64048;-76
2023/09/28 02:10:19;;;;;;;24.80;22.50;;;;;;;12.93;100.00;99470.39;109638;1251;59337;-76
2023/09/28 02:12:45;;;;;;;27.00;24.10;;;;;;;12.91;100.00;99468.69;109680;1251;59107;-76
2023/09/28 02:15:16;;;;;;;25.20;22.60;;;;;;;12.90;100.00;99471.61;109644;1251;58970;-76
2023/09/28 02:17:44;;;;;;;25.70;23.20;;;;;;;12.89;100.00;99469.39;109642;1251;59006;-76
2023/09/28 02:20:16;;;;;;;28.30;25.60;;;;;;;12.87;100.00;99467.98;109576;1251;63010;-76
2023/09/28 02:22:44;;;;;;;24.60;22.00;;;;;;;12.85;100.00;99467.70;109667;1251;58987;-76
2023/09/28 02:25:15;;;;;;;25.90;23.20;;;;;;;12.82;100.00;99467.00;109577;1250;58996;-76
2023/09/28 02:27:42;;;;;;;25.00;22.50;;;;;;;12.80;100.00;99467.52;109594;1251;64951;-76
2023/09/28 02:30:11;;;;;;;25.40;22.50;;;;;;;12.79;100.00;99467.06;109576;1251;59048;-76
2023/09/28 02:32:39;;;;;;;24.90;22.40;;;;;;;12.78;100.00;99466.45;109591;1251;64167;-76
2023/09/28 02:35:07;;;;;;;25.90;23.30;;;;;;;12.74;100.00;99467.17;109623;1250;59009;-76
2023/09/28 02:37:34;;;;;;;26.90;24.30;;;;;;;12.72;100.00;99468.08;109616;1251;59135;-76
2023/09/28 02:40:05;;;;;;;24.80;22.40;;;;;;;12.70;100.00;99471.02;109388;1251;65766;-75
2023/09/28 02:42:32;;;;;;;25.80;23.30;;;;;;;12.68;100.00;99469.77;109586;1251;60442;-76
2023/09/28 02:44:58;;;;;;;24.10;21.90;;;;;;;12.66;100.00;99469.73;109623;1251;65518;-76
2023/09/28 02:47:25;;;;;;;25.70;22.80;;;;;;;12.65;100.00;99469.64;109625;1251;59005;-75
2023/09/28 02:49:52;;;;;;;25.80;23.50;;;;;;;12.64;100.00;99465.95;109631;1251;58951;-76
2023/09/28 02:52:19;;;;;;;26.50;23.90;;;;;;;12.63;100.00;99466.16;109694;1250;66010;-76
2023/09/28 02:54:46;;;;;;;26.90;24.10;;;;;;;12.63;100.00;99465.13;109785;1249;59148;-76
2023/09/28 02:57:13;;;;;;;25.80;23.30;;;;;;;12.62;100.00;99466.27;109772;1250;63828;-76
2023/09/28 02:59:39;;;;;;;24.10;21.80;;;;;;;12.60;100.00;99467.27;109437;1251;58928;-76
2023/09/28 03:02:09;;;;;;;24.70;22.20;;;;;;;12.58;100.00;99467.05;109843;1249;58976;-76
2023/09/28 03:04:35;;;;;;;28.30;25.50;;;;;;;12.56;100.00;99467.23;109851;1249;66083;-76
2023/09/28 03:07:02;;;;;;;25.70;23.20;;;;;;;12.54;100.00;99466.08;109922;1249;58338;-76
2023/09/28 03:09:29;;;;;;;24.90;22.40;;;;;;;12.53;100.00;99468.27;109796;1250;72759;-76
2023/09/28 03:11:55;;;;;;;27.20;24.30;;;;;;;12.51;100.00;99465.70;109774;1250;59028;-76
2023/09/28 03:14:22;;;;;;;24.40;22.10;;;;;;;12.51;100.00;99466.98;109788;1250;59130;-76
2023/09/28 03:16:48;;;;;;;27.70;25.00;;;;;;;12.49;100.00;99467.96;109793;1250;58983;-76
2023/09/28 03:19:15;;;;;;;28.80;25.60;;;;;;;12.49;100.00;99467.09;109809;1250;58954;-75
2023/09/28 03:21:42;;;;;;;28.00;25.10;;;;;;;12.50;100.00;99459.73;109759;1250;64059;-76
2023/09/28 03:24:08;;;;;;;30.40;27.30;;;;;;;12.53;100.00;99463.15;109553;1249;58947;-76
2023/09/28 03:26:35;;;;;;;26.20;22.80;;;;;;;12.51;100.00;99458.59;109783;1249;59077;-76
2023/09/28 03:29:01;;;;;;;29.10;26.10;;;;;;;12.50;100.00;99460.29;109765;1250;59107;-76
2023/09/28 03:31:28;;;;;;;30.20;26.90;;;;;;;12.48;100.00;99461.63;109418;1249;59088;-76
2023/09/28 03:33:55;;;;;;;28.60;25.60;;;;;;;12.48;100.00;99463.64;109773;1249;65459;-76
2023/09/28 03:36:22;;;;;;;33.80;28.30;;;;;;;12.47;100.00;99461.17;109737;1250;58900;-76
2023/09/28 03:38:48;;;;;;;30.60;27.30;;;;;;;12.49;100.00;99459.62;109582;1250;59461;-76
2023/09/28 03:41:15;;;;;;;31.00;27.90;;;;;;;12.52;100.00;99461.21;109742;1250;66029;-75
2023/09/28 03:43:42;;;;;;;29.90;26.70;;;;;;;12.52;100.00;99460.12;109802;1249;58998;-76
2023/09/28 03:46:09;;;;;;;33.00;28.30;;;;;;;12.55;100.00;99458.33;109746;1250;64082;-76
2023/09/28 03:48:35;;;;;;;34.20;30.50;;;;;;;12.59;100.00;99457.20;109739;1249;58920;-76
2023/09/28 03:51:02;;;;;;;33.50;30.30;;;;;;;12.62;100.00;99457.86;109794;1250;59057;-76
2023/09/28 03:53:31;;;;;;;36.20;32.40;;;;;;;12.66;100.00;99456.19;109775;1249;66100;-75
2023/09/28 03:55:58;;;;;;;35.10;31.50;;;;;;;12.67;100.00;99457.49;109278;1250;60829;-76
2023/09/28 03:58:24;;;;;;;35.40;31.90;;;;;;;12.70;100.00;99459.48;109745;1249;64099;-76
2023/09/28 04:00:51;;;;;;;34.90;31.20;;;;;;;12.71;100.00;99456.90;109434;1250;59085;-75
2023/09/28 04:03:17;;;;;;;35.30;31.00;;;;;;;12.71;100.00;99457.96;109810;1249;58871;-75
2023/09/28 04:05:44;;;;;;;35.30;31.80;;;;;;;12.69;100.00;99460.03;109753;1250;59686;-76
2023/09/28 04:08:10;;;;;;;33.80;30.40;;;;;;;12.69;100.00;99458.27;109777;1250;58970;-76
2023/09/28 04:10:37;;;;;;;33.50;29.90;;;;;;;12.70;100.00;99460.66;109782;1250;59051;-77
2023/09/28 04:13:03;;;;;;;33.00;29.60;;;;;;;12.71;100.00;99460.96;109794;1249;59015;-75
2023/09/28 04:15:30;;;;;;;30.90;27.90;;;;;;;12.71;100.00;99457.41;109792;1250;59076;-75
2023/09/28 04:17:56;;;;;;;32.60;29.30;;;;;;;12.73;100.00;99459.58;109799;1249;67200;-75
2023/09/28 04:20:23;;;;;;;31.80;28.00;;;;;;;12.74;100.00;99460.42;109789;1249;59001;-75
2023/09/28 04:22:50;;;;;;;32.10;28.90;;;;;;;12.72;100.00;99460.17;109811;1249;63314;-75
2023/09/28 04:25:19;;;;;;;32.00;29.00;;;;;;;12.71;100.00;99456.17;109805;1249;58940;-76
2023/09/28 04:27:47;;;;;;;30.40;27.30;;;;;;;12.71;100.00;99461.52;109663;1249;59085;-75
2023/09/28 04:30:14;;;;;;;30.50;26.50;;;;;;;12.71;100.00;99462.04;109764;1249;66055;-75
2023/09/28 04:32:41;;;;;;;29.80;26.70;;;;;;;12.71;100.00;99465.23;109832;1249;58982;-75
2023/09/28 04:35:10;;;;;;;30.80;27.60;;;;;;;12.71;100.00;99467.38;109758;1249;62829;-75
2023/09/28 04:37:37;;;;;;;35.10;31.90;;;;;;;12.70;100.00;99466.40;109524;1250;58987;-75
2023/09/28 04:40:04;;;;;;;37.40;34.00;;;;;;;12.67;100.00;99467.83;109800;1249;58987;-75
2023/09/28 04:42:31;;;;;;;56.30;51.30;;;;;;;12.65;100.00;99467.61;109789;1249;64866;-75
2023/09/28 04:44:58;;;;;;;62.30;56.70;;;;;;;12.65;100.00;99469.82;109748;1249;59856;-76
2023/09/28 04:47:25;;;;;;;44.60;40.20;;;;;;;12.65;100.00;99470.14;109773;1249;64225;-76
2023/09/28 04:49:51;;;;;;;33.40;30.00;;;;;;;12.66;100.00;99467.39;109766;1249;59203;-75
2023/09/28 04:52:18;;;;;;;30.10;27.30;;;;;;;12.67;100.00;99467.68;109563;1249;59159;-76
2023/09/28 04:54:44;;;;;;;28.20;25.30;;;;;;;12.68;100.00;99468.31;109725;1250;59001;-76
2023/09/28 04:57:11;;;;;;;27.70;25.00;;;;;;;12.69;100.00;99466.48;109820;1249;60198;-74
2023/09/28 04:59:38;;;;;;;27.60;24.90;;;;;;;12.70;100.00;99466.20;109777;1249;64056;-75
2023/09/28 05:02:05;;;;;;;28.60;26.00;;;;;;;12.78;100.00;99466.92;109600;1250;59008;-76
2023/09/28 05:04:31;;;;;;;30.00;26.80;;;;;;;12.96;100.00;99463.17;109829;1249;59231;-76
2023/09/28 05:06:59;;;;;;;27.90;25.10;;;;;;;13.15;100.00;99465.27;109739;1249;64826;-77
2023/09/28 05:09:26;;;;;;;28.00;25.30;;;;;;;13.24;100.00;99467.13;109805;1250;58992;-77
2023/09/28 05:11:53;;;;;;;29.10;26.10;;;;;;;13.40;100.00;99466.41;109549;1250;73745;-76
2023/09/28 05:14:24;;;;;;;29.80;26.90;;;;;;;13.61;100.00;99462.36;109387;1249;59048;-76
2023/09/28 05:16:51;;;;;;;22.10;20.00;;;;;;;13.84;100.00;99464.17;109827;1249;59008;-77
2023/09/28 05:19:18;;;;;;;21.70;19.70;;;;;;;14.05;100.00;99463.28;109828;1249;65736;-76
2023/09/28 05:21:44;;;;;;;19.00;17.20;;;;;;;14.23;100.00;99463.02;109822;1249;61337;-77
2023/09/28 05:24:11;;;;;;;18.80;16.80;;;;;;;14.42;100.00;99465.70;109775;1249;59058;-76
2023/09/28 05:26:37;;;;;;;18.90;17.20;;;;;;;14.60;100.00;99467.41;109764;1249;58999;-76
2023/09/28 05:29:04;;;;;;;18.20;16.60;;;;;;;14.77;100.00;99468.10;109811;1249;59015;-77
2023/09/28 05:31:30;;;;;;;17.40;15.70;;;;;;;14.91;100.00;99469.55;109771;1249;65703;-77
2023/09/28 05:33:57;;;;;;;17.70;16.00;;;;;;;15.07;100.00;99471.20;109782;1249;59073;-77
2023/09/28 05:36:24;;;;;;;16.60;15.20;;;;;;;15.23;100.00;99475.27;109773;1249;63901;-76
2023/09/28 05:38:50;;;;;;;19.40;16.00;;;;;;;15.39;100.00;99483.14;109811;1249;59001;-77
2023/09/28 05:41:17;;;;;;;16.90;15.20;;;;;;;15.45;100.00;99481.63;109588;1249;59066;-76
2023/09/28 05:43:43;;;;;;;21.60;14.90;;;;;;;15.45;100.00;99479.84;109602;1250;66116;-76
2023/09/28 05:46:09;;;;;;;17.60;15.80;;;;;;;15.42;100.00;99483.45;109854;1249;60329;-76
2023/09/28 05:48:36;;;;;;;18.80;14.40;;;;;;;15.36;100.00;99490.36;109768;1249;59047;-76
2023/09/28 05:51:03;;;;;;;16.30;14.80;;;;;;;15.30;100.00;99488.66;109738;1249;58931;-76
2023/09/28 05:53:29;;;;;;;17.30;15.70;;;;;;;15.25;100.00;99489.44;109830;1250;58872;-76
2023/09/28 05:55:56;;;;;;;17.70;15.80;;;;;;;15.19;100.00;99486.48;109776;1250;59310;-77
2023/09/28 05:58:22;;;;;;;17.20;15.60;;;;;;;15.15;100.00;99479.62;109841;1249;58964;-76
2023/09/28 06:00:49;;;;;;;17.00;15.40;;;;;;;15.14;100.00;99485.44;109765;1249;59033;-75
2023/09/28 06:03:16;;;;;;;17.20;15.50;;;;;;;15.16;100.00;99488.17;109779;1249;59281;-76
2023/09/28 06:05:42;;;;;;;16.60;15.20;;;;;;;15.16;100.00;99488.03;109816;1249;59028;-77
2023/09/28 06:08:09;;;;;;;17.00;15.20;;;;;;;15.12;100.00;99482.95;109925;1253;64655;-76
2023/09/28 06:10:37;;;;;;;18.50;16.70;;;;;;;15.13;100.00;99483.39;109933;1249;58954;-76
2023/09/28 06:13:04;;;;;;;16.60;15.10;;;;;;;15.13;100.00;99485.73;109851;1250;65218;-76
2023/09/28 06:15:32;;;;;;;17.60;16.10;;;;;;;15.13;100.00;99485.52;109813;1249;58930;-75
2023/09/28 06:17:58;;;;;;;17.20;15.60;;;;;;;15.16;100.00;99485.34;109451;1249;59024;-76
2023/09/28 06:20:25;;;;;;;16.00;14.50;;;;;;;15.17;100.00;99486.69;109808;1249;58936;-76
2023/09/28 06:22:53;;;;;;;16.40;14.70;;;;;;;15.22;100.00;99486.48;109794;1249;59224;-77
2023/09/28 06:25:19;;;;;;;16.90;15.30;;;;;;;15.27;100.00;99491.45;109772;1249;62758;-76
2023/09/28 06:27:47;;;;;;;15.70;14.20;;;;;;;15.31;100.00;99490.20;109743;1249;59003;-76
2023/09/28 06:30:14;;;;;;;15.90;14.40;;;;;;;15.36;100.00;99488.20;109804;1249;59369;-76
2023/09/28 06:32:41;;;;;;;14.90;13.60;;;;;;;15.44;100.00;99490.64;109798;1250;65721;-77
2023/09/28 06:35:09;;;;;;;16.10;14.50;;;;;;;15.50;100.00;99488.89;109791;1250;59776;-76
2023/09/28 06:37:35;;;;;;;16.50;14.90;;;;;;;15.55;100.00;99488.16;109819;1249;62558;-77
2023/09/28 06:40:03;;;;;;;16.20;14.60;;;;;;;15.63;100.00;99486.95;109756;1249;58970;-76
2023/09/28 06:42:30;;;;;;;16.40;14.90;;;;;;;15.73;100.00;99487.66;109792;1249;58882;-77
2023/09/28 06:44:57;;;;;;;17.00;15.30;;;;;;;15.81;100.00;99488.80;109626;1249;165989;-76
2023/09/28 06:47:24;;;;;;;15.60;14.10;;;;;;;15.89;100.00;99490.82;109825;1250;59324;-77
2023/09/28 06:49:51;;;;;;;16.50;14.90;;;;;;;15.96;100.00;99495.80;109799;1249;64167;-77
2023/09/28 06:52:18;;;;;;;16.40;14.70;;;;;;;16.04;100.00;99498.96;109746;1249;58977;-77
2023/09/28 06:54:44;;;;;;;15.70;14.40;;;;;;;16.13;100.00;99501.10;109487;1251;59044;-77
2023/09/28 06:57:10;;;;;;;16.20;14.50;;;;;;;16.21;100.00;99503.63;109802;1249;58918;-77
2023/09/28 06:59:37;;;;;;;16.00;14.50;;;;;;;16.29;100.00;99501.73;109821;1249;59012;-77
2023/09/28 07:02:04;;;;;;;15.10;13.70;;;;;;;16.36;100.00;99502.77;109752;1249;59365;-77
2023/09/28 07:04:31;;;;;;;14.90;13.70;;;;;;;16.44;100.00;99498.01;109746;1249;58940;-76
2023/09/28 07:06:58;;;;;;;16.50;14.90;;;;;;;16.51;100.00;99500.96;109448;1249;59349;-77
2023/09/28 07:09:25;;;;;;;15.50;13.90;;;;;;;16.60;100.00;99498.05;109560;1249;67134;-76
2023/09/28 07:11:52;;;;;;;16.20;14.40;;;;;;;16.68;100.00;99504.55;109747;1250;61387;-77
2023/09/28 07:14:18;;;;;;;15.80;14.40;;;;;;;16.77;100.00;99505.84;109753;1249;64987;-77
2023/09/28 07:16:45;;;;;;;15.60;14.00;;;;;;;16.85;100.00;99505.47;109814;1249;58918;-77
2023/09/28 07:19:12;;;;;;;14.40;12.90;;;;;;;16.95;100.00;99502.50;109795;1249;59327;-75
2023/09/28 07:21:38;;;;;;;15.00;12.90;;;;;;;17.05;100.00;99508.45;109801;1249;65026;-75
2023/09/28 07:24:06;;;;;;;14.80;13.00;;;;;;;17.14;100.00;99510.55;109465;1250;59031;-75
2023/09/28 07:26:33;;;;;;;14.50;13.10;;;;;;;17.21;100.00;99509.61;109747;1249;64034;-75
2023/09/28 07:28:59;;;;;;;14.50;13.10;;;;;;;17.32;100.00;99504.51;109755;1249;58969;-75
2023/09/28 07:31:26;;;;;;;15.30;13.50;;;;;;;17.42;100.00;99506.73;109788;1249;59075;-75
2023/09/28 07:33:52;;;;;;;14.30;13.00;;;;;;;17.49;100.00;99504.10;109798;1249;64504;-75
2023/09/28 07:36:19;;;;;;;15.70;14.10;;;;;;;17.56;100.00;99507.34;109487;1250;59073;-75
2023/09/28 07:38:47;;;;;;;15.90;13.60;;;;;;;17.65;100.00;99508.89;109750;1249;71432;-75
2023/09/28 07:41:13;;;;;;;16.70;13.10;;;;;;;17.72;100.00;99510.41;109679;1249;59018;-75
2023/09/28 07:43:40;;;;;;;14.10;12.80;;;;;;;17.79;100.00;99510.71;109798;1249;58990;-76
2023/09/28 07:46:07;;;;;;;15.40;13.80;;;;;;;17.84;100.00;99511.73;109784;1249;58981;-75
2023/09/28 07:48:34;;;;;;;15.80;13.70;;;;;;;17.90;100.00;99512.02;109766;1249;60109;-75
2023/09/28 07:51:01;;;;;;;14.90;13.50;;;;;;;17.96;100.00;99512.21;109449;1249;62845;-74
2023/09/28 07:53:28;;;;;;;13.70;12.30;;;;;;;18.01;100.00;99510.13;109802;1249;58942;-75
2023/09/28 07:55:54;;;;;;;14.10;12.70;;;;;;;18.08;100.00;99509.75;109494;1254;58989;-76
2023/09/28 07:58:21;;;;;;;14.70;13.20;;;;;;;18.15;100.00;99510.20;109739;1249;59783;-76
2023/09/28 08:00:47;;;;;;;13.60;12.30;;;;;;;18.21;100.00;99510.33;109798;1249;60154;-77
2023/09/28 08:03:14;;;;;;;14.70;12.90;;;;;;;18.28;100.00;99508.97;109760;1249;59031;-73
2023/09/28 08:05:41;;;;;;;15.00;12.70;;;;;;;18.37;100.00;99506.20;109609;1249;59010;-77
2023/09/28 08:08:07;;;;;;;14.40;12.90;;;;;;;18.45;100.00;99505.81;109464;1249;59015;-75
2023/09/28 08:10:34;;;;;;;13.30;12.10;;;;;;;18.52;100.00;99505.70;109721;1249;58923;-75
2023/09/28 08:13:01;;;;;;;14.00;12.60;;;;;;;18.59;100.00;99505.80;109815;1250;59251;-74
2023/09/28 08:15:27;;;;;;;15.90;13.20;;;;;;;18.69;100.00;99501.83;109741;1249;64182;-75
2023/09/28 08:17:54;;;;;;;13.40;12.10;;;;;;;18.80;100.00;99501.02;109418;1249;59049;-75
2023/09/28 08:20:20;;;;;;;14.50;12.50;;;;;;;18.93;100.00;99501.80;109444;1249;59099;-75
2023/09/28 08:22:47;;;;;;;12.80;11.30;;;;;;;19.02;100.00;99505.03;109765;1249;66203;-75
2023/09/28 08:25:14;;;;;;;13.30;12.10;;;;;;;19.12;100.00;99509.20;109424;1249;58958;-76
2023/09/28 08:27:41;;;;;;;13.60;12.30;;;;;;;19.23;100.00;99512.04;109707;1249;73516;-75
2023/09/28 08:30:08;;;;;;;14.00;12.60;;;;;;;19.35;100.00;99514.38;109762;1249;58922;-76
2023/09/28 08:32:34;;;;;;;12.30;11.10;;;;;;;19.44;100.00;99511.46;109516;1249;59371;-75
2023/09/28 08:35:01;;;;;;;13.60;12.20;;;;;;;19.53;100.00;99509.05;109747;1249;59575;-71
2023/09/28 08:37:28;;;;;;;14.10;12.90;;;;;;;19.63;100.00;99510.76;109784;1249;58972;-70
2023/09/28 08:39:55;;;;;;;13.30;11.60;;;;;;;19.74;100.00;99509.04;109577;1249;65194;-69
2023/09/28 08:42:25;;;;;;;11.90;10.70;;;;;;;19.87;100.00;99507.95;109741;1249;58971;-70
2023/09/28 08:45:01;;;;;;;12.90;11.20;;;;;;;20.01;100.00;99510.73;109777;1249;58898;-70
2023/09/28 08:47:35;;;;;;;11.90;10.80;;;;;;;20.16;100.00;99506.23;109732;1249;64924;-70
2023/09/28 08:50:03;;;;;;;11.50;10.30;;;;;;;20.31;100.00;99507.56;109774;1250;69755;-69
2023/09/28 08:52:30;;;;;;;12.80;10.10;;;;;;;20.43;100.00;99506.80;109774;1249;63381;-69
2023/09/28 08:54:58;;;;;;;12.40;10.40;;;;;;;20.53;100.00;99500.73;109388;1249;58968;-69
2023/09/28 08:57:26;;;;;;;12.60;10.30;;;;;;;20.68;100.00;99496.86;109789;1249;59208;-69
2023/09/28 08:59:53;;;;;;;11.60;10.40;;;;;;;20.82;100.00;99492.40;109751;1249;66049;-70
2023/09/28 09:02:19;;;;;;;12.30;11.00;;;;;;;20.93;100.00;99493.77;109769;1249;61406;-70
2023/09/28 09:04:46;;;;;;;11.10;10.00;;;;;;;21.02;100.00;99489.59;109691;1249;64062;-70
2023/09/28 09:07:13;;;;;;;12.80;10.10;;;;;;;21.12;100.00;99486.29;109739;1249;59227;-71
2023/09/28 09:09:40;;;;;;;11.40;9.50;;;;;;;21.24;100.00;99490.63;109741;1250;59004;-71
2023/09/28 09:12:10;;;;;;;11.60;9.50;;;;;;;21.36;100.00;99483.45;109767;1249;64823;-70
2023/09/28 09:14:40;;;;;;;9.80;8.70;;;;;;;21.48;100.00;99483.23;109822;1249;59267;-70
2023/09/28 09:17:07;;;;;;;9.60;8.40;;;;;;;21.61;100.00;99484.77;109749;1249;62844;-69
2023/09/28 09:19:34;;;;;;;8.80;7.90;;;;;;;21.75;100.00;99487.71;109739;1249;59013;-69
2023/09/28 09:22:00;;;;;;;11.70;8.60;;;;;;;21.86;100.00;99488.51;109398;1249;58919;-69
2023/09/28 09:24:27;;;;;;;9.70;8.00;;;;;;;21.95;100.00;99490.68;109758;1249;59555;-70
2023/09/28 09:26:55;;;;;;;8.30;7.60;;;;;;;22.01;100.00;99490.53;109778;1249;58936;-69
2023/09/28 09:29:25;;;;;;;12.80;8.40;;;;;;;22.06;100.00;99485.12;109758;1249;62837;-69
2023/09/28 09:31:52;;;;;;;9.70;7.30;;;;;;;22.14;100.00;99484.95;109757;1250;58955;-70
2023/09/28 09:34:20;;;;;;;7.90;7.00;;;;;;;22.26;100.00;99486.58;109725;1249;58967;-70
2023/09/28 09:36:55;;;;;;;9.10;8.10;;;;;;;22.34;100.00;99483.50;109759;1249;66875;-70
2023/09/28 09:39:27;;;;;;;10.30;7.70;;;;;;;22.44;100.00;99483.75;109764;1249;60260;-70
2023/09/28 09:41:55;;;;;;;11.50;8.20;;;;;;;22.52;100.00;99481.70;109771;1249;64123;-69
2023/09/28 09:44:27;;;;;;;8.90;7.00;;;;;;;22.65;100.00;99484.77;109720;1249;59528;-69
2023/09/28 09:46:55;;;;;;;11.40;7.40;;;;;;;22.76;100.00;99481.11;109810;1249;59168;-70
2023/09/28 09:49:24;;;;;;;10.20;7.20;;;;;;;22.85;100.00;99483.02;109703;1250;66187;-69
2023/09/28 09:51:51;;;;;;;9.10;8.10;;;;;;;22.95;100.00;99483.02;109692;1250;60977;-69
2023/09/28 09:54:19;;;;;;;8.80;7.90;;;;;;;23.09;100.00;99483.35;109628;1250;64056;-69
2023/09/28 09:56:50;;;;;;;8.50;7.30;;;;;;;23.18;100.00;99482.29;109647;1250;58955;-69
2023/09/28 09:59:20;;;;;;;8.70;7.30;;;;;;;23.25;100.00;99483.94;109674;1250;59007;-69
2023/09/28 10:01:48;;;;;;;11.00;7.00;;;;;;;23.27;100.00;99485.46;109639;1250;64945;-69
2023/09/28 10:04:16;;;;;;;7.90;6.60;;;;;;;23.34;100.00;99480.66;109726;1253;59353;-69
2023/09/28 10:06:48;;;;;;;8.20;6.80;;;;;;;23.45;100.00;99477.65;109691;1250;64558;-70
2023/09/28 10:09:19;;;;;;;8.10;7.10;;;;;;;23.53;100.00;99476.91;109663;1250;58936;-70
2023/09/28 10:11:52;;;;;;;7.50;6.70;;;;;;;23.60;100.00;99478.84;109628;1250;58879;-69
2023/09/28 10:14:21;;;;;;;8.90;7.40;;;;;;;23.68;100.00;99473.60;109633;1250;64876;-69
2023/09/28 10:16:51;;;;;;;7.70;6.60;;;;;;;23.74;100.00;99471.97;109614;1250;59179;-70
2023/09/28 10:19:21;;;;;;;8.70;7.40;;;;;;;23.82;100.00;99471.52;109630;1250;64993;-70
2023/09/28 10:21:47;;;;;;;8.20;7.20;;;;;;;23.92;100.00;99468.67;109645;1250;58985;-69
2023/09/28 10:24:15;;;;;;;7.00;6.30;;;;;;;23.98;100.00;99465.79;109700;1250;59025;-70
2023/09/28 10:26:50;;;;;;;9.20;6.80;;;;;;;24.03;100.00;99465.80;109650;1250;64515;-70
2023/09/28 10:29:28;;;;;;;7.00;6.30;;;;;;;24.06;100.00;99465.40;109651;1250;60147;-70
2023/09/28 10:31:56;;;;;;;7.50;6.80;;;;;;;24.15;100.00;99463.52;109649;1250;64095;-70
2023/09/28 10:34:26;;;;;;;7.90;6.80;;;;;;;24.24;100.00;99464.08;109610;1250;58961;-70
2023/09/28 10:37:04;;;;;;;9.60;6.10;;;;;;;24.30;100.00;99463.09;109729;1250;59045;-70
2023/09/28 10:39:31;;;;;;;7.40;6.10;;;;;;;24.36;100.00;99464.08;109692;1250;65917;-70
2023/09/28 10:42:06;;;;;;;8.20;6.60;;;;;;;24.39;100.00;99465.52;109675;1250;59006;-68
2023/09/28 10:44:32;;;;;;;8.30;6.60;;;;;;;24.45;100.00;99461.08;109672;1250;64876;-68
2023/09/28 10:46:59;;;;;;;6.90;6.30;;;;;;;24.53;100.00;99455.62;109646;1250;58978;-69
2023/09/28 10:49:28;;;;;;;8.90;6.40;;;;;;;24.60;100.00;99454.95;109656;1250;58965;-69
2023/09/28 10:51:56;;;;;;;6.00;5.50;;;;;;;24.66;100.00;99454.42;109616;1249;64913;-69
2023/09/28 10:54:26;;;;;;;6.60;5.90;;;;;;;24.73;100.00;99454.07;109720;1250;58931;-69
2023/09/28 10:56:52;;;;;;;7.60;5.80;;;;;;;24.84;100.00;99454.63;109631;1250;73860;-69
2023/09/28 10:59:19;;;;;;;6.70;6.10;;;;;;;24.92;100.00;99455.48;109548;1250;59009;-69
2023/09/28 11:01:48;;;;;;;8.00;5.80;;;;;;;24.96;100.00;99454.07;109696;1250;59018;-70
2023/09/28 11:04:16;;;;;;;8.30;5.70;;;;;;;24.97;100.00;99454.16;109679;1253;65823;-69
2023/09/28 11:06:43;;;;;;;7.60;6.10;;;;;;;25.01;100.00;99453.01;109688;1250;60150;-69